Time;durP1;ratioP1;P1;durP2;ratioP2;P2;SDS_P1;SDS_P2;PMS_P1;PMS_P2;Temp;Humidity;BMP_temperature;BMP_pressure;BME280_temperature;BME280_humidity;BME280_pressure;Samples;Min_cycle;Max_cycle;Signal;HPM_P1;HPM_P2
2023/05/10 00:01:59;;;;;;;11.88;10.73;;;22.30;78.50;;;;;;6268695;27;89066;-71
2023/05/10 00:05:01;;;;;;;11.80;10.60;;;22.40;78.60;;;;;;6258349;27;89071;-71
2023/05/10 00:08:04;;;;;;;11.43;10.32;;;22.30;78.60;;;;;;6277020;27;89463;-72
2023/05/10 00:11:06;;;;;;;12.32;11.02;;;22.40;78.60;;;;;;6288672;27;89051;-71
2023/05/10 00:14:08;;;;;;;11.70;10.60;;;22.40;78.60;;;;;;6281797;27;89120;-70
2023/05/10 00:17:10;;;;;;;12.02;10.82;;;22.40;78.70;;;;;;6285128;27;89014;-70
2023/05/10 00:20:13;;;;;;;12.02;10.88;;;22.30;78.60;;;;;;6273130;27;88832;-71
2023/05/10 00:23:16;;;;;;;13.13;11.88;;;22.30;78.60;;;;;;6286250;27;88137;-70
2023/05/10 00:26:18;;;;;;;12.43;11.13;;;22.30;78.60;;;;;;6285220;27;89089;-71
2023/05/10 00:29:20;;;;;;;13.13;11.82;;;22.30;78.60;;;;;;6279418;27;89970;-70
2023/05/10 00:32:22;;;;;;;13.10;11.80;;;22.30;78.60;;;;;;6281889;27;89323;-70
2023/05/10 00:35:24;;;;;;;13.70;12.32;;;22.40;78.60;;;;;;6284153;27;89080;-71
2023/05/10 00:38:27;;;;;;;13.20;11.90;;;22.40;78.60;;;;;;6269063;27;88134;-70
2023/05/10 00:41:31;;;;;;;13.02;11.73;;;22.40;78.60;;;;;;6270334;27;89020;-71
2023/05/10 00:44:33;;;;;;;13.57;12.27;;;22.40;78.60;;;;;;6271503;27;89140;-71
2023/05/10 00:47:35;;;;;;;13.32;12.02;;;22.30;78.50;;;;;;6266727;27;89127;-71
2023/05/10 00:50:38;;;;;;;13.73;12.40;;;22.30;78.40;;;;;;6280924;27;88676;-70
2023/05/10 00:53:42;;;;;;;13.98;12.07;;;22.30;78.50;;;;;;6276687;27;87859;-70
2023/05/10 00:56:48;;;;;;;13.65;12.23;;;22.30;78.50;;;;;;6261864;27;89134;-71
2023/05/10 00:59:51;;;;;;;13.32;11.93;;;22.30;78.60;;;;;;6274405;27;90016;-70
2023/05/10 01:02:54;;;;;;;13.02;11.73;;;22.30;78.50;;;;;;6286657;27;89047;-70
2023/05/10 01:05:56;;;;;;;12.82;11.60;;;22.30;78.60;;;;;;6276820;27;89432;-70
2023/05/10 01:08:59;;;;;;;12.85;11.55;;;22.30;78.50;;;;;;6276629;27;89089;-70
2023/05/10 01:12:02;;;;;;;13.25;11.95;;;22.30;78.50;;;;;;6260122;27;89266;-70
2023/05/10 01:15:06;;;;;;;13.75;12.13;;;22.30;78.40;;;;;;6282395;27;89118;-70
2023/05/10 01:18:10;;;;;;;12.48;11.30;;;22.30;78.50;;;;;;6279125;27;89034;-71
2023/05/10 01:21:20;;;;;;;12.65;11.40;;;22.30;78.50;;;;;;6261774;27;88421;-71
2023/05/10 01:25:12;;;;;;;12.50;11.30;;;22.30;78.40;;;;;;6262983;27;89022;-70
2023/05/10 01:28:27;;;;;;;11.75;10.65;;;22.30;78.40;;;;;;6256122;27;89928;-71
2023/05/10 01:31:52;;;;;;;12.88;11.57;;;22.30;78.40;;;;;;6264333;27;89949;-71
2023/05/10 01:35:03;;;;;;;12.20;11.02;;;22.30;78.40;;;;;;6275919;27;89100;-71
2023/05/10 01:38:10;;;;;;;12.70;11.43;;;22.30;78.40;;;;;;6279203;27;89169;-70
2023/05/10 01:41:18;;;;;;;12.07;10.88;;;22.30;78.40;;;;;;6278553;27;89055;-70
2023/05/10 01:44:29;;;;;;;12.23;11.02;;;22.30;78.40;;;;;;6276296;27;89400;-70
2023/05/10 01:47:36;;;;;;;12.40;11.20;;;22.30;78.40;;;;;;6294702;27;89114;-71
2023/05/10 01:50:44;;;;;;;11.90;10.77;;;22.30;78.40;;;;;;6288774;27;89141;-71
2023/05/10 01:53:48;;;;;;;12.43;11.23;;;22.30;78.40;;;;;;6273145;27;88712;-70
2023/05/10 01:56:57;;;;;;;12.20;10.90;;;22.30;78.30;;;;;;6309012;27;88859;-70
2023/05/10 02:00:02;;;;;;;11.65;10.55;;;22.30;78.30;;;;;;6285055;27;88853;-70
2023/05/10 02:03:08;;;;;;;11.98;10.77;;;22.30;78.30;;;;;;6296026;27;88984;-71
2023/05/10 02:06:13;;;;;;;10.93;9.85;;;22.30;78.30;;;;;;6298529;27;88922;-70
2023/05/10 02:09:17;;;;;;;12.25;11.05;;;22.30;78.30;;;;;;6277221;27;87972;-71
2023/05/10 02:12:19;;;;;;;12.25;11.05;;;22.30;78.30;;;;;;6286264;27;89049;-72
2023/05/10 02:15:24;;;;;;;11.48;10.38;;;22.30;78.30;;;;;;6285040;27;88296;-71
2023/05/10 02:18:28;;;;;;;11.73;10.52;;;22.30;78.40;;;;;;6299067;27;88966;-71
2023/05/10 02:21:32;;;;;;;11.10;10.05;;;22.30;78.30;;;;;;6289274;27;88999;-71
2023/05/10 02:24:35;;;;;;;10.98;9.93;;;22.30;78.40;;;;;;6287757;27;88704;-70
2023/05/10 02:27:38;;;;;;;10.90;9.88;;;22.30;78.30;;;;;;6283725;27;89104;-71
2023/05/10 02:30:40;;;;;;;11.18;10.07;;;22.30;78.30;;;;;;6290326;27;89092;-70
2023/05/10 02:33:45;;;;;;;11.52;10.43;;;22.30;78.30;;;;;;6294995;27;90368;-70
2023/05/10 02:36:48;;;;;;;11.32;10.23;;;22.20;78.20;;;;;;6293923;27;89120;-70
2023/05/10 02:39:53;;;;;;;11.15;10.13;;;22.30;78.30;;;;;;6283006;27;89217;-69
2023/05/10 02:42:58;;;;;;;12.98;10.45;;;22.30;78.30;;;;;;6273605;27;88972;-70
2023/05/10 02:46:00;;;;;;;10.93;9.82;;;22.20;78.20;;;;;;6276208;27;89301;-70
2023/05/10 02:49:02;;;;;;;10.50;9.50;;;22.20;78.20;;;;;;6275339;27;89092;-70
2023/05/10 02:52:08;;;;;;;10.35;9.35;;;22.20;78.30;;;;;;6287557;27;89043;-71
2023/05/10 02:55:13;;;;;;;10.55;9.55;;;22.20;78.30;;;;;;6296231;27;87960;-71
2023/05/10 02:58:15;;;;;;;10.13;9.15;;;22.20;78.20;;;;;;6281403;27;89021;-71
2023/05/10 03:01:17;;;;;;;10.40;9.40;;;22.20;78.30;;;;;;6285593;27;89021;-71
2023/05/10 03:04:19;;;;;;;10.30;9.30;;;22.30;78.30;;;;;;6283018;27;90068;-71
2023/05/10 03:07:22;;;;;;;9.77;8.88;;;22.30;78.30;;;;;;6278300;27;89102;-71
2023/05/10 03:10:30;;;;;;;9.75;8.85;;;22.20;78.20;;;;;;6281479;27;89208;-71
2023/05/10 03:13:37;;;;;;;10.18;9.18;;;22.20;78.20;;;;;;6284641;27;89136;-70
2023/05/10 03:16:46;;;;;;;10.05;9.05;;;22.20;78.20;;;;;;6296200;27;89102;-70
2023/05/10 03:19:54;;;;;;;10.68;9.57;;;22.20;78.20;;;;;;6260669;27;89152;-71
2023/05/10 03:23:05;;;;;;;10.20;9.20;;;22.20;78.20;;;;;;6259338;27;89290;-71
2023/05/10 03:26:08;;;;;;;9.73;8.80;;;22.30;78.30;;;;;;6270872;27;88365;-70
2023/05/10 03:29:11;;;;;;;9.95;8.95;;;22.20;78.10;;;;;;6291665;27;89185;-70
2023/05/10 03:32:13;;;;;;;9.73;8.75;;;22.20;78.20;;;;;;6287731;27;89097;-70
2023/05/10 03:35:15;;;;;;;9.60;8.70;;;22.20;78.20;;;;;;6262662;27;90122;-71
2023/05/10 03:38:18;;;;;;;9.30;8.48;;;22.30;78.30;;;;;;6295019;27;89092;-70
2023/05/10 03:41:20;;;;;;;9.63;8.73;;;22.30;78.30;;;;;;6283150;27;89390;-70
2023/05/10 03:44:22;;;;;;;9.75;8.75;;;22.20;78.30;;;;;;6291732;27;89126;-71
2023/05/10 03:47:24;;;;;;;9.15;8.35;;;22.30;78.30;;;;;;6282847;27;90728;-70
2023/05/10 03:50:27;;;;;;;9.45;8.55;;;22.20;78.30;;;;;;6271034;27;89260;-70
2023/05/10 03:53:30;;;;;;;9.25;8.35;;;22.20;78.30;;;;;;6277730;27;89119;-70
2023/05/10 03:56:32;;;;;;;9.02;8.13;;;22.20;78.30;;;;;;6273383;27;88665;-70
2023/05/10 03:59:34;;;;;;;9.05;8.15;;;22.20;78.30;;;;;;6305846;27;89199;-70
2023/05/10 04:02:36;;;;;;;8.90;8.10;;;22.20;78.30;;;;;;6280979;27;87963;-70
2023/05/10 04:05:38;;;;;;;8.60;7.80;;;22.30;78.30;;;;;;6269505;27;90131;-70
2023/05/10 04:08:41;;;;;;;8.40;7.65;;;22.30;78.30;;;;;;6265518;27;89113;-70
2023/05/10 04:11:43;;;;;;;8.75;7.95;;;22.20;78.30;;;;;;6282966;27;89070;-69
2023/05/10 04:14:45;;;;;;;8.45;7.65;;;22.30;78.40;;;;;;6271930;27;89102;-70
2023/05/10 04:17:47;;;;;;;8.20;7.40;;;22.20;78.30;;;;;;6286831;27;89144;-70
2023/05/10 04:20:49;;;;;;;8.48;7.68;;;22.20;78.30;;;;;;6286055;27;89403;-70
2023/05/10 04:23:52;;;;;;;8.40;7.60;;;22.20;78.30;;;;;;6281211;27;89026;-71
2023/05/10 04:26:55;;;;;;;7.93;7.20;;;22.30;78.30;;;;;;6278791;27;89663;-71
2023/05/10 04:29:58;;;;;;;8.82;7.75;;;22.30;78.40;;;;;;6269852;27;89438;-71
2023/05/10 04:33:00;;;;;;;8.77;7.15;;;22.20;78.30;;;;;;6295347;27;88026;-70
2023/05/10 04:36:02;;;;;;;8.20;7.40;;;22.20;78.30;;;;;;6279705;27;89283;-71
2023/05/10 04:39:06;;;;;;;7.88;7.18;;;22.20;78.30;;;;;;6281215;27;89155;-70
2023/05/10 04:42:08;;;;;;;8.57;7.70;;;22.20;78.30;;;;;;6262269;27;89439;-71
2023/05/10 04:45:10;;;;;;;7.82;7.13;;;22.20;78.30;;;;;;6274668;27;89145;-70
2023/05/10 04:48:12;;;;;;;7.50;6.80;;;22.30;78.40;;;;;;6279669;27;88243;-71
2023/05/10 04:51:14;;;;;;;7.60;6.90;;;22.20;78.30;;;;;;6279539;27;88963;-71
2023/05/10 04:54:18;;;;;;;7.68;6.72;;;22.20;78.30;;;;;;6291859;27;88988;-72
2023/05/10 04:57:20;;;;;;;7.10;6.40;;;22.30;78.30;;;;;;6283385;27;88277;-71
2023/05/10 05:00:22;;;;;;;7.57;6.18;;;22.20;78.20;;;;;;6279510;27;89369;-70
2023/05/10 05:03:24;;;;;;;9.38;6.35;;;22.20;78.10;;;;;;6265476;27;89084;-71
2023/05/10 05:06:27;;;;;;;8.80;7.00;;;22.30;78.30;;;;;;6265595;27;90071;-70
2023/05/10 05:09:31;;;;;;;7.70;5.85;;;22.20;78.50;;;;;;6275097;27;89139;-71
2023/05/10 05:12:33;;;;;;;8.23;6.38;;;22.20;78.50;;;;;;6281068;27;89403;-70
2023/05/10 05:15:35;;;;;;;7.53;6.57;;;22.20;78.40;;;;;;6281374;27;89067;-71
2023/05/10 05:18:37;;;;;;;9.70;7.07;;;22.30;78.40;;;;;;6290656;27;87917;-71
2023/05/10 05:21:39;;;;;;;7.97;6.43;;;22.20;78.40;;;;;;6295282;27;89368;-71
2023/05/10 05:24:42;;;;;;;7.13;6.30;;;22.20;78.40;;;;;;6269379;27;90439;-70
2023/05/10 05:27:44;;;;;;;7.93;5.88;;;22.30;78.50;;;;;;6270269;27;87317;-71
2023/05/10 05:30:46;;;;;;;6.75;5.90;;;22.20;78.40;;;;;;6275657;27;89246;-70
2023/05/10 05:33:48;;;;;;;9.15;6.50;;;22.20;78.40;;;;;;6273844;27;88020;-70
2023/05/10 05:36:50;;;;;;;6.82;5.57;;;22.20;78.40;;;;;;6279821;27;89966;-70
2023/05/10 05:39:54;;;;;;;6.70;6.10;;;22.20;78.40;;;;;;6256080;27;89058;-71
2023/05/10 05:42:56;;;;;;;9.52;6.50;;;22.30;78.40;;;;;;6256855;27;89012;-70
2023/05/10 05:45:58;;;;;;;6.63;5.95;;;22.30;78.40;;;;;;6259922;27;89065;-71
2023/05/10 05:49:00;;;;;;;6.85;6.03;;;22.20;78.40;;;;;;6268781;27;87959;-71
2023/05/10 05:52:03;;;;;;;6.93;6.20;;;22.20;78.30;;;;;;6276833;27;89164;-70
2023/05/10 05:55:08;;;;;;;6.53;5.93;;;22.20;78.40;;;;;;6292647;27;89016;-71
2023/05/10 05:58:09;;;;;;;6.72;6.05;;;22.30;78.50;;;;;;6279751;27;88241;-70
2023/05/10 06:01:11;;;;;;;6.93;6.22;;;22.20;78.40;;;;;;6278617;27;88962;-70
2023/05/10 06:04:13;;;;;;;6.60;5.93;;;22.30;78.40;;;;;;6268595;27;89241;-71
2023/05/10 06:07:15;;;;;;;7.88;5.68;;;22.30;78.40;;;;;;6253806;27;90123;-70
2023/05/10 06:10:19;;;;;;;6.53;5.82;;;22.20;78.40;;;;;;6279733;27;89465;-71
2023/05/10 06:13:21;;;;;;;6.65;6.05;;;22.30;78.40;;;;;;6268179;27;89108;-70
2023/05/10 06:16:23;;;;;;;7.03;5.53;;;22.20;78.40;;;;;;6270703;27;89124;-71
2023/05/10 06:19:26;;;;;;;5.95;5.35;;;22.30;78.40;;;;;;6274943;27;89110;-71
2023/05/10 06:22:28;;;;;;;6.78;5.70;;;22.20;78.40;;;;;;6260483;27;88838;-71
2023/05/10 06:25:31;;;;;;;6.38;5.78;;;22.30;78.50;;;;;;6271795;27;87938;-71
2023/05/10 06:28:33;;;;;;;6.13;5.53;;;22.20;78.40;;;;;;6287863;27;88355;-71
2023/05/10 06:31:35;;;;;;;6.88;5.80;;;22.30;78.50;;;;;;6293549;27;89194;-70
2023/05/10 06:34:37;;;;;;;6.60;5.93;;;22.30;78.50;;;;;;6307631;27;89078;-71
2023/05/10 06:37:39;;;;;;;6.15;5.55;;;22.20;78.40;;;;;;6271767;27;89996;-70
2023/05/10 06:40:44;;;;;;;5.90;5.30;;;22.30;78.50;;;;;;6282183;27;88941;-71
2023/05/10 06:43:46;;;;;;;6.10;5.50;;;22.20;78.40;;;;;;6283086;27;89050;-71
2023/05/10 06:46:47;;;;;;;7.55;5.63;;;22.20;78.40;;;;;;6283672;27;88876;-71
2023/05/10 06:49:49;;;;;;;6.85;5.72;;;22.30;78.50;;;;;;6278388;27;89047;-71
2023/05/10 06:52:51;;;;;;;5.90;5.30;;;22.20;78.40;;;;;;6286715;27;89065;-70
2023/05/10 06:55:54;;;;;;;6.70;5.15;;;22.30;78.60;;;;;;6300124;27;88001;-71
2023/05/10 06:58:56;;;;;;;5.88;5.38;;;22.30;78.60;;;;;;6279583;27;88487;-71
2023/05/10 07:01:58;;;;;;;6.28;5.63;;;22.20;78.50;;;;;;6295768;27;89196;-70
2023/05/10 07:05:00;;;;;;;5.80;5.07;;;22.30;78.60;;;;;;6277220;27;89006;-70
2023/05/10 07:08:02;;;;;;;6.63;5.60;;;22.30;78.50;;;;;;6268192;27;90055;-71
2023/05/10 07:11:07;;;;;;;6.32;5.68;;;22.30;78.60;;;;;;6301646;27;87961;-70
2023/05/10 07:14:09;;;;;;;7.63;5.60;;;22.30;78.50;;;;;;6304008;27;88117;-71
2023/05/10 07:17:11;;;;;;;6.65;5.20;;;22.30;78.50;;;;;;6263120;27;89615;-70
2023/05/10 07:20:14;;;;;;;5.95;5.10;;;22.30;78.50;;;;;;6285239;27;88279;-71
2023/05/10 07:23:17;;;;;;;5.88;5.00;;;22.30;78.60;;;;;;6264499;27;89188;-71
2023/05/10 07:26:21;;;;;;;5.80;5.22;;;22.30;78.60;;;;;;6274314;27;89685;-71
2023/05/10 07:29:23;;;;;;;6.00;5.10;;;22.30;78.60;;;;;;6302301;27;88342;-71
2023/05/10 07:32:25;;;;;;;5.88;4.93;;;22.30;78.60;;;;;;6263338;27;89075;-71
2023/05/10 07:35:27;;;;;;;5.90;5.30;;;22.30;78.60;;;;;;6272542;27;89128;-71
2023/05/10 07:38:29;;;;;;;4.90;4.45;;;22.30;78.60;;;;;;6287987;27;91396;-71
2023/05/10 07:41:33;;;;;;;5.68;5.10;;;22.30;78.60;;;;;;6274020;27;89047;-72
2023/05/10 07:44:35;;;;;;;6.72;5.13;;;22.30;78.60;;;;;;6275171;27;89069;-71
2023/05/10 07:47:37;;;;;;;5.85;4.97;;;22.30;78.60;;;;;;6270680;27;89220;-71
2023/05/10 07:50:38;;;;;;;5.22;4.72;;;22.30;78.60;;;;;;6285096;27;89104;-71
2023/05/10 07:53:40;;;;;;;5.35;4.85;;;22.30;78.60;;;;;;6286137;27;91081;-71
2023/05/10 07:56:46;;;;;;;5.13;4.63;;;22.30;78.70;;;;;;6282189;27;89507;-71
2023/05/10 07:59:48;;;;;;;5.57;4.75;;;22.30;78.60;;;;;;6271540;27;88302;-71
2023/05/10 08:02:50;;;;;;;6.50;5.03;;;22.30;78.70;;;;;;6258028;27;88058;-72
2023/05/10 08:05:52;;;;;;;5.50;4.47;;;22.30;78.70;;;;;;6259962;27;88964;-71
2023/05/10 08:08:55;;;;;;;5.30;4.80;;;22.30;78.70;;;;;;6280738;27;90220;-71
2023/05/10 08:11:59;;;;;;;5.05;4.55;;;22.30;78.70;;;;;;6268740;27;89026;-72
2023/05/10 08:15:01;;;;;;;4.70;4.30;;;22.30;78.60;;;;;;6281190;27;88097;-71
2023/05/10 08:18:04;;;;;;;5.38;4.88;;;22.30;78.60;;;;;;6301492;27;89085;-71
2023/05/10 08:21:06;;;;;;;5.20;4.60;;;22.30;78.60;;;;;;6289393;27;88367;-71
2023/05/10 08:24:08;;;;;;;4.63;4.22;;;22.30;78.60;;;;;;6266466;27;88946;-70
2023/05/10 08:27:11;;;;;;;5.07;4.53;;;22.30;78.70;;;;;;6281851;27;89094;-71
2023/05/10 08:30:14;;;;;;;5.45;4.60;;;22.30;78.70;;;;;;6277520;27;88600;-70
2023/05/10 08:33:15;;;;;;;4.82;4.40;;;22.30;78.70;;;;;;6272359;27;89179;-72
2023/05/10 08:36:21;;;;;;;5.13;4.63;;;22.40;78.80;;;;;;6277278;27;88585;-71
2023/05/10 08:39:24;;;;;;;4.78;4.32;;;22.30;78.80;;;;;;6287388;27;90330;-70
2023/05/10 08:42:31;;;;;;;4.90;4.40;;;22.40;78.80;;;;;;6295778;27;89348;-71
2023/05/10 08:45:34;;;;;;;4.72;4.32;;;22.30;78.80;;;;;;6273208;27;89060;-70
2023/05/10 08:48:36;;;;;;;5.57;4.65;;;22.30;78.80;;;;;;6256232;27;89101;-71
2023/05/10 08:51:44;;;;;;;5.05;4.55;;;22.40;78.80;;;;;;6270870;27;89044;-72
2023/05/10 08:54:47;;;;;;;4.85;4.32;;;22.30;78.80;;;;;;6267624;27;88080;-71
2023/05/10 08:57:50;;;;;;;4.40;4.00;;;22.30;78.80;;;;;;6268100;27;89369;-70
2023/05/10 09:00:52;;;;;;;4.93;4.25;;;22.30;78.80;;;;;;6283021;27;88268;-70
2023/05/10 09:03:54;;;;;;;4.40;4.00;;;22.30;78.80;;;;;;6287021;27;89142;-71
2023/05/10 09:06:56;;;;;;;4.25;3.85;;;22.30;78.90;;;;;;6262235;27;89032;-70
2023/05/10 09:09:59;;;;;;;4.90;4.40;;;22.30;79.80;;;;;;6285493;27;89948;-71
2023/05/10 09:13:04;;;;;;;4.55;4.10;;;22.30;78.80;;;;;;6294676;27;89004;-71
2023/05/10 09:16:07;;;;;;;4.63;3.83;;;22.40;79.00;;;;;;6287057;27;89236;-71
2023/05/10 09:19:09;;;;;;;4.13;3.72;;;22.30;78.90;;;;;;6287529;27;89104;-71
2023/05/10 09:22:11;;;;;;;4.20;3.72;;;22.30;78.90;;;;;;6274091;27;88225;-71
2023/05/10 09:25:14;;;;;;;4.93;3.90;;;22.30;78.90;;;;;;6279347;27;88107;-71
2023/05/10 09:28:17;;;;;;;5.03;4.10;;;22.30;78.90;;;;;;6292914;27;89003;-70
2023/05/10 09:31:20;;;;;;;4.55;4.13;;;22.30;78.90;;;;;;6290201;27;88384;-70
2023/05/10 09:34:30;;;;;;;4.35;3.95;;;22.30;78.90;;;;;;6294174;27;89144;-71
2023/05/10 09:37:32;;;;;;;4.18;3.78;;;22.30;78.90;;;;;;6257787;27;89070;-70
2023/05/10 09:40:34;;;;;;;4.10;3.70;;;22.30;78.90;;;;;;6278593;27;90029;-70
2023/05/10 09:43:41;;;;;;;4.75;3.88;;;22.30;78.90;;;;;;6284289;27;87992;-71
2023/05/10 09:46:43;;;;;;;4.20;3.80;;;22.40;78.90;;;;;;6284201;27;89333;-71
2023/05/10 09:49:45;;;;;;;3.90;3.60;;;22.30;78.90;;;;;;6288803;27;90035;-70
2023/05/10 09:52:48;;;;;;;4.07;3.67;;;22.30;78.90;;;;;;6284165;27;89082;-71
2023/05/10 09:55:50;;;;;;;3.60;3.30;;;22.30;79.00;;;;;;6286448;27;89300;-70
2023/05/10 09:59:05;;;;;;;4.10;3.70;;;22.30;79.00;;;;;;6269908;27;89662;-71
2023/05/10 10:02:07;;;;;;;4.38;3.92;;;22.30;79.90;;;;;;6283181;27;88451;-71
2023/05/10 10:05:09;;;;;;;4.15;3.75;;;22.30;79.00;;;;;;6276098;27;89971;-70
2023/05/10 10:08:12;;;;;;;3.80;3.50;;;22.40;79.10;;;;;;6277532;27;89460;-70
2023/05/10 10:11:14;;;;;;;4.05;3.40;;;22.40;79.00;;;;;;6282922;27;90126;-70
2023/05/10 10:14:19;;;;;;;4.10;3.70;;;22.40;79.10;;;;;;6283733;27;89087;-70
2023/05/10 10:17:22;;;;;;;4.05;3.40;;;22.30;79.00;;;;;;6306417;27;89679;-69
2023/05/10 10:20:24;;;;;;;3.83;3.53;;;22.30;79.00;;;;;;6296067;27;87876;-70
2023/05/10 10:23:28;;;;;;;4.00;3.67;;;22.40;79.10;;;;;;6307346;27;89340;-70
2023/05/10 10:26:30;;;;;;;3.92;3.60;;;22.30;79.10;;;;;;6281987;27;87982;-71
2023/05/10 10:29:41;;;;;;;3.60;3.30;;;22.30;79.10;;;;;;6271663;27;89091;-69
2023/05/10 10:33:03;;;;;;;3.50;3.20;;;22.40;79.10;;;;;;6283174;27;88363;-70
2023/05/10 10:36:06;;;;;;;3.85;3.45;;;22.30;79.10;;;;;;6272383;27;89054;-70
2023/05/10 10:39:11;;;;;;;3.50;3.20;;;22.30;79.10;;;;;;6272507;27;89010;-70
2023/05/10 10:42:13;;;;;;;4.05;3.65;;;22.40;79.10;;;;;;6271635;27;90159;-70
2023/05/10 10:45:16;;;;;;;4.13;3.38;;;22.40;79.10;;;;;;6274805;27;89385;-71
2023/05/10 10:48:23;;;;;;;3.58;3.28;;;22.30;79.00;;;;;;6289123;27;88975;-71
2023/05/10 10:51:25;;;;;;;3.33;3.03;;;22.40;79.10;;;;;;6269486;27;89031;-70
2023/05/10 10:54:29;;;;;;;3.50;3.17;;;22.30;79.10;;;;;;6285557;27;88864;-70
2023/05/10 10:57:34;;;;;;;3.47;3.17;;;22.40;79.10;;;;;;6282660;27;89117;-70
2023/05/10 11:00:40;;;;;;;3.47;3.17;;;22.30;79.10;;;;;;6305937;27;89390;-70
2023/05/10 11:03:56;;;;;;;3.38;3.08;;;22.30;79.10;;;;;;6281643;27;87222;-71
2023/05/10 11:07:18;;;;;;;3.58;3.28;;;22.30;79.10;;;;;;6273062;27;88878;-71
2023/05/10 11:10:21;;;;;;;3.38;3.08;;;22.30;79.20;;;;;;6278317;27;89090;-71
2023/05/10 11:13:30;;;;;;;3.38;3.08;;;22.30;79.10;;;;;;6258420;27;90021;-70
2023/05/10 11:16:43;;;;;;;3.40;2.90;;;22.40;79.20;;;;;;6292891;27;89036;-71
2023/05/10 11:20:09;;;;;;;3.72;3.33;;;22.40;79.20;;;;;;6268781;27;89407;-71
2023/05/10 11:23:17;;;;;;;3.38;3.08;;;22.40;79.20;;;;;;6260541;27;88946;-70
2023/05/10 11:26:22;;;;;;;3.13;2.83;;;22.30;79.10;;;;;;6269688;27;89110;-71
2023/05/10 11:29:26;;;;;;;3.28;2.95;;;22.30;79.10;;;;;;6282182;27;88953;-70
2023/05/10 11:32:30;;;;;;;2.90;2.70;;;22.30;79.10;;;;;;6282860;27;89535;-70
2023/05/10 11:35:37;;;;;;;3.22;2.90;;;22.40;79.20;;;;;;6296490;27;88456;-70
2023/05/10 11:38:39;;;;;;;3.28;2.97;;;22.30;79.30;;;;;;6275718;27;89033;-70
2023/05/10 11:41:41;;;;;;;3.00;2.70;;;22.30;79.20;;;;;;6276688;27;89548;-70
2023/05/10 11:44:46;;;;;;;3.00;2.70;;;22.40;79.30;;;;;;6280635;27;90095;-70
2023/05/10 11:47:51;;;;;;;2.95;2.67;;;22.30;79.20;;;;;;6269483;27;89032;-71
2023/05/10 11:50:56;;;;;;;4.07;3.00;;;22.40;79.30;;;;;;6294410;27;89321;-71
2023/05/10 11:53:58;;;;;;;3.28;2.80;;;22.30;79.10;;;;;;6289256;27;89223;-70
2023/05/10 11:57:01;;;;;;;2.63;2.42;;;22.40;79.20;;;;;;6289250;27;89045;-70
2023/05/10 12:00:04;;;;;;;2.90;2.60;;;22.30;79.10;;;;;;6280001;27;89453;-71
2023/05/10 12:03:07;;;;;;;2.85;2.63;;;22.40;79.30;;;;;;6266616;27;89207;-71
2023/05/10 12:06:09;;;;;;;2.60;2.40;;;22.30;79.20;;;;;;6277773;27;87986;-71
2023/05/10 12:09:11;;;;;;;2.60;2.33;;;22.40;79.30;;;;;;6274564;27;89287;-71
2023/05/10 12:12:17;;;;;;;3.85;2.80;;;22.30;79.20;;;;;;6271292;27;89589;-70
2023/05/10 12:15:21;;;;;;;3.63;2.88;;;22.30;79.30;;;;;;6282143;27;89991;-70
2023/05/10 12:18:26;;;;;;;3.10;2.70;;;22.30;79.30;;;;;;6282748;27;89200;-71
2023/05/10 12:21:30;;;;;;;3.88;2.67;;;22.40;79.30;;;;;;6257685;27;87946;-71
2023/05/10 12:24:34;;;;;;;2.40;2.20;;;22.30;79.30;;;;;;6303286;27;89067;-70
2023/05/10 12:27:36;;;;;;;2.65;2.40;;;22.30;79.30;;;;;;6270266;27;89550;-71
2023/05/10 12:30:38;;;;;;;2.60;2.40;;;22.30;79.30;;;;;;6279322;27;89044;-69
2023/05/10 12:33:43;;;;;;;2.40;2.20;;;22.40;79.40;;;;;;6273481;27;89128;-72
2023/05/10 12:36:45;;;;;;;2.70;2.40;;;22.30;79.30;;;;;;6268583;27;88150;-70
2023/05/10 12:39:47;;;;;;;2.63;2.28;;;22.30;79.30;;;;;;6279950;27;89317;-70
2023/05/10 12:42:49;;;;;;;3.08;2.53;;;22.40;79.30;;;;;;6280396;27;89356;-70
2023/05/10 12:45:51;;;;;;;2.78;2.40;;;22.30;79.30;;;;;;6278157;27;89766;-70
2023/05/10 12:48:55;;;;;;;2.83;2.40;;;22.40;79.40;;;;;;6270291;27;89104;-70
2023/05/10 12:51:57;;;;;;;2.90;2.60;;;22.30;79.30;;;;;;6294512;27;88055;-70
2023/05/10 12:55:00;;;;;;;2.38;2.17;;;22.30;79.40;;;;;;6291698;27;89273;-71
2023/05/10 12:58:02;;;;;;;3.17;2.42;;;22.30;79.40;;;;;;6267024;27;89083;-71
2023/05/10 13:01:05;;;;;;;3.03;2.55;;;22.40;79.40;;;;;;6279991;27;89373;-70
2023/05/10 13:04:08;;;;;;;3.22;2.53;;;22.30;79.30;;;;;;6271299;27;89029;-70
2023/05/10 13:07:11;;;;;;;2.47;2.28;;;22.30;79.30;;;;;;6275335;27;88616;-70
2023/05/10 13:10:13;;;;;;;2.65;2.45;;;22.30;79.30;;;;;;6278650;27;89085;-71
2023/05/10 13:13:17;;;;;;;2.65;2.20;;;22.30;79.30;;;;;;6289006;27;89186;-71
2023/05/10 13:16:19;;;;;;;2.67;2.20;;;22.40;79.40;;;;;;6279579;27;88965;-71
2023/05/10 13:19:23;;;;;;;2.60;2.25;;;22.30;79.40;;;;;;6280309;27;89130;-70
2023/05/10 13:22:25;;;;;;;2.35;2.15;;;22.40;79.40;;;;;;6268067;27;89078;-71
2023/05/10 13:25:27;;;;;;;2.58;2.20;;;22.40;79.40;;;;;;6266617;27;88971;-70
2023/05/10 13:28:30;;;;;;;3.05;2.30;;;22.40;79.40;;;;;;6279281;27;89040;-71
2023/05/10 13:31:32;;;;;;;2.60;2.17;;;22.30;79.40;;;;;;6280433;27;88991;-70
2023/05/10 13:34:35;;;;;;;2.20;2.00;;;22.30;79.40;;;;;;6280101;27;88727;-71
2023/05/10 13:37:37;;;;;;;2.20;2.00;;;22.30;79.40;;;;;;6280517;27;87241;-70
2023/05/10 13:40:39;;;;;;;2.17;1.98;;;22.30;79.40;;;;;;6290937;27;89111;-70
2023/05/10 13:43:41;;;;;;;2.30;2.00;;;22.40;79.40;;;;;;6268543;27;89241;-71
2023/05/10 13:46:43;;;;;;;2.40;2.10;;;22.40;79.40;;;;;;6265678;27;89986;-71
2023/05/10 13:49:47;;;;;;;2.38;2.08;;;22.30;79.40;;;;;;6281120;27;88999;-70
2023/05/10 13:52:49;;;;;;;2.15;1.92;;;22.30;79.40;;;;;;6268709;27;89136;-70
2023/05/10 13:55:51;;;;;;;2.00;1.80;;;22.40;79.40;;;;;;6279573;27;89043;-70
2023/05/10 13:58:53;;;;;;;2.08;1.80;;;22.40;79.40;;;;;;6277144;27;89095;-71
2023/05/10 14:01:55;;;;;;;2.10;1.90;;;22.40;79.60;;;;;;6289459;27;89052;-70
2023/05/10 14:04:58;;;;;;;2.20;1.98;;;22.40;79.50;;;;;;6288877;27;89072;-71
2023/05/10 14:08:00;;;;;;;2.05;1.85;;;22.40;79.50;;;;;;6282291;27;88343;-70
2023/05/10 14:11:02;;;;;;;2.10;1.90;;;22.30;79.40;;;;;;6274418;27;89007;-71
2023/05/10 14:14:04;;;;;;;2.38;2.10;;;22.30;79.40;;;;;;6281948;27;89238;-71
2023/05/10 14:17:06;;;;;;;3.00;2.10;;;22.30;79.40;;;;;;6269540;27;89937;-71
2023/05/10 14:20:11;;;;;;;3.35;2.30;;;22.30;79.40;;;;;;6265260;27;89029;-70
2023/05/10 14:23:13;;;;;;;1.98;1.80;;;22.30;79.40;;;;;;6256486;27;89189;-71
2023/05/10 14:26:15;;;;;;;1.80;1.70;;;22.40;79.50;;;;;;6281594;27;89048;-72
2023/05/10 14:29:18;;;;;;;2.00;1.80;;;22.30;79.40;;;;;;6265637;27;87993;-71
2023/05/10 14:32:20;;;;;;;1.60;1.50;;;22.40;80.40;;;;;;6271434;27;89070;-71
2023/05/10 14:35:23;;;;;;;2.45;1.80;;;22.30;79.40;;;;;;6280157;27;89122;-71
2023/05/10 14:38:26;;;;;;;1.95;1.70;;;22.40;80.50;;;;;;6261681;27;88331;-71
2023/05/10 14:41:30;;;;;;;2.35;2.00;;;22.30;79.50;;;;;;6280912;27;89091;-72
2023/05/10 14:44:32;;;;;;;3.10;2.30;;;22.30;79.60;;;;;;6290714;27;89605;-71
2023/05/10 14:47:34;;;;;;;1.80;1.70;;;22.30;79.50;;;;;;6275337;27;88937;-71
2023/05/10 14:50:37;;;;;;;1.67;1.58;;;22.30;79.50;;;;;;6281200;27;88979;-71
2023/05/10 14:53:39;;;;;;;1.70;1.60;;;22.30;79.50;;;;;;6261346;27;89093;-71
2023/05/10 14:56:41;;;;;;;1.90;1.80;;;22.30;79.40;;;;;;6288778;27;89076;-72
2023/05/10 14:59:43;;;;;;;2.05;1.85;;;22.30;79.40;;;;;;6286525;27;89045;-70
2023/05/10 15:02:45;;;;;;;1.80;1.70;;;22.30;79.40;;;;;;6291307;27;87968;-71
2023/05/10 15:05:48;;;;;;;2.00;1.80;;;22.30;79.40;;;;;;6276629;27;89094;-71
2023/05/10 15:08:50;;;;;;;2.20;1.80;;;22.40;79.60;;;;;;6281919;27;88364;-70
2023/05/10 15:11:52;;;;;;;2.05;1.85;;;22.40;79.60;;;;;;6271644;27;88987;-71
2023/05/10 15:14:54;;;;;;;2.22;1.80;;;22.30;79.50;;;;;;6270174;27;88997;-71
2023/05/10 15:17:56;;;;;;;1.80;1.70;;;22.40;79.60;;;;;;6282607;27;90048;-71
2023/05/10 15:20:59;;;;;;;1.98;1.80;;;22.30;79.60;;;;;;6261692;27;89162;-71
2023/05/10 15:24:01;;;;;;;2.10;1.90;;;22.30;79.60;;;;;;6277786;27;89009;-70
2023/05/10 15:27:03;;;;;;;1.90;1.70;;;22.30;79.60;;;;;;6286831;27;87899;-71
2023/05/10 15:30:07;;;;;;;2.38;1.88;;;22.30;79.60;;;;;;6276914;27;89064;-72
2023/05/10 15:33:09;;;;;;;2.50;2.00;;;22.30;79.60;;;;;;6260378;27;88938;-72
2023/05/10 15:36:12;;;;;;;1.90;1.70;;;22.30;79.60;;;;;;6271765;27;89613;-72
2023/05/10 15:39:15;;;;;;;1.90;1.70;;;22.30;79.60;;;;;;6284801;27;88633;-72
2023/05/10 15:42:17;;;;;;;1.60;1.48;;;22.30;79.50;;;;;;6280185;27;88819;-72
2023/05/10 15:45:19;;;;;;;1.85;1.65;;;22.30;79.50;;;;;;6268533;27;89018;-72
2023/05/10 15:48:21;;;;;;;1.70;1.60;;;22.40;79.60;;;;;;6270116;27;89988;-71
2023/05/10 15:51:25;;;;;;;1.55;1.45;;;22.30;79.60;;;;;;6284061;27;89097;-73